Terminal Aerodrome Forecast
Issued by NWS Brownsville, TX

Home | Current Version | Previous Version | Text Only | Print | Product List | Glossary On
Versions: 1 2 3 4 5 6 7 8 9 10 11 12 13 14 15 16 17 18 19 20 21 22 23 24
000
FTUS44 KBRO 271720
TAFHRL
TAF
KHRL 271720Z 2718/2818 09015KT P6SM SCT021 OVC030
     FM272100 12012KT P6SM SCT030
     FM280300 16012KT P6SM BKN015
     FM280900 16015KT P6SM OVC010
     FM281500 16020KT 6SM HZ SCT015 BKN030=

USA.gov is the U.S. government's official web portal to all federal, state and local government web resources and services.